Bear Valley Ski Patrol Weather




            Date and Time  Surv  Temp  Temp  Surv  Precip   Total Inter Total  Batt Koala Koala Koala Koala Koala Koala Bear T Bear T  Bear  Bear  Bear
                           Temp 24 hr 24 hr    RH    Inch   24 hr  Snow  Snow  volt  Temp    RH    WS    WD    WS    WS   Temp     RH    WS    WD    WS
                          Deg F   Min   Max     %    Hour  Precip Stake Stake  Surv Deg F     %   mph  quad   Max 24Max  Deg F      %   mph  quad   Max
-------------------------------------------------------------------------------------------------------------------------------------------------------
    "2021-05-14 08:00:00"    53                17    0.00             0   226  13.5    53    17     6   SSE     8           54     19     3   SSE     6
    "2021-05-14 09:00:00"    57                15    0.00             0    60  13.5    55    14     5   SSE    10           55     19     2   SSE     6
    "2021-05-14 10:00:00"    57                16    0.00             0   226  13.5    56    15     5     S    14           56     18     2   SSW     8
    "2021-05-14 11:00:00"    59                17    0.00             0    36  13.5    58    18     4     S    12           58     21     2   ESE     7
    "2021-05-14 12:00:00"    64                19    0.00             0    59  13.4    61    17     2   NNW     9           57     27     2   NNE     8
    "2021-05-14 13:00:00"    65                24    0.00             0    60  13.3    60    26     3     W    10           58     31     4     W    14
    "2021-05-14 14:00:00"    64                27    0.00             0   226  13.3    59    28     5   WNW    14           58     31     4     W    14
    "2021-05-14 15:00:00"    61                27    0.00             0   226  13.2    61    21     4   WNW    13           58     35     4     W    12
    "2021-05-14 16:00:00"    61                25    0.00             0   226  13.2    62    23     4   WSW    15           58     32     4   WSW    13
    "2021-05-14 17:00:00"    58                39    0.00             0    51  13.2    61    34     5   SSW    14           57     46     4    SW    13
    "2021-05-14 18:00:00"    56                41    0.00             0    34  13.2    58    32     5   SSW    15           55     44     4   WSW    10
    "2021-05-14 19:00:00"    53                37    0.00             0   226  13.2    53    35     9   SSW    16           53     41     4   SSW    10
    "2021-05-14 20:00:00"    50                42    0.00             0    50  13.2    49    41     7   SSW    15           49     48     4   SSW     9
    "2021-05-14 21:00:00"    46                48    0.00             0    49  13.3    47    46    10     S    17           47     52     8     S    14
    "2021-05-14 22:00:00"    46                52    0.00             0   226  13.3    46    52    12   SSE    19           46     51     7     S    14
    "2021-05-14 23:00:00"    45                54    0.00             0   226  13.4    44    52    12   SSE    19           45     58     7     S    12
    "2021-05-15 00:00:00"    44                50    0.00             0   226  13.4    43    54    13     S    20           43     54     5     S    13
    "2021-05-15 01:00:00"    43                50    0.00             0   226  13.4    42    50    14     S    23           42     51     6   SSE    15
    "2021-05-15 02:00:00"    40                57    0.00             0    50  13.5    41    52     8   SSE    15           41     56     4   SSE    12
    "2021-05-15 03:00:00"    40                52    0.00             0    55  13.5    40    50    10   SSE    15           41     54     5   SSE    11
    "2021-05-15 04:00:00"    41                55    0.00             0    49  13.5    40    56    10   SSE    18           40     60     4   SSE    10
    "2021-05-15 05:00:00"    41                56    0.00             0   226  13.5    39    58     9   SSE    17           40     61     6   SSE    13
    "2021-05-15 06:00:00"    41                61    0.00             0    50  13.5    39    62    10   SSE    15           40     64     8   SSE    15
    "2021-05-15 07:00:00"    42    40    65    59    0.00    0.00     0    34  13.6    40    60     8   SSE    14    23     40     63     5   SSE    11
    "2021-05-15 08:00:00"    45                57    0.00             0    34  13.6    43    54    11     S    18           43     60     5   SSE    14
    "2021-05-15 09:00:00"    47                42    0.00             0    34  13.6    46    46     9     S    21           44     53     5   SSE    12
    "2021-05-15 10:00:00"    48                32    0.00             0    53  13.6    48    34     8     S    19           45     41     6   SSE    14
    "2021-05-15 11:00:00"    50                27    0.00             0    33  13.6    49    29     9     S    19           47     41     5   SSE    13
    "2021-05-15 12:00:00"    52                40    0.00             0    33  13.5    50    37     6     S    16           48     49     3    SW     9
    "2021-05-15 13:00:00"    52                51    0.00             0    45  13.5    48    55     5    NW    12           47     62     3    NW    10
    "2021-05-15 14:00:00"    41                65    0.00             0    44  13.4    39    69    10    NW    32           43     78     7    NW    26
    "2021-05-15 15:00:00"    40                66    0.00             0   240  13.4    37    68    12    NW    29           36     77    10   NNW    18
    "2021-05-15 16:00:00"    41                72    0.00             0    33  13.4    39    71     8   NNW    13           38     77     6   NNW    10
    "2021-05-15 17:00:00"    41                72    0.00             0    42  13.4    38    78     9   NNW    19           37     84     7   NNW    13
    "2021-05-15 18:00:00"    45                56    0.00             0     2  13.5    43    59     4   ESE    10           40     66     2    NE     8
    "2021-05-15 19:00:00"    42                67    0.00             0    40  13.5    43    61     6    SE    12           40     72     5   ESE     9
    "2021-05-15 20:00:00"    40                63    0.00             0    42  13.5    40    62    11   NNE    27           39     69     9   NNE    18
    "2021-05-15 21:00:00"    39                77    0.00             0    27  13.5    38    74    11   NNE    26           37     81     8   NNE    17
    "2021-05-15 22:00:00"    37                76    0.00             0    41  13.5    38    69     8    NE    19           37     75     5    NE    12
    "2021-05-15 23:00:00"    36                82    0.00             0    41  13.5    37    75     6   NNE    16           36     83     3   NNE     6
    "2021-05-16 00:00:00"    36                83    0.00             0    41  13.6    37    75     6   NNE    15           36     72     3   NNE     8
    "2021-05-16 01:00:00"    35                82    0.00             0    40  13.6    36    73     5   NNW    10           37     77     4     N     8
    "2021-05-16 02:00:00"    36                74    0.00             0    41  13.6    37    62     5    NE    14           37     63     4    NE     9
    "2021-05-16 03:00:00"    35                80    0.00             0   240  13.6    37    72     3   ESE     9           38     67     3   ESE     8
    "2021-05-16 04:00:00"    36                74    0.00             0    41  13.6    37    66     5    NW     8           37     66     5   NNW     8
    "2021-05-16 05:00:00"    36                71    0.00             0    40  13.7    37    61     7   NNW    11           37     66     6   NNW     9
    "2021-05-16 06:00:00"    36                75    0.00             0   240  13.8    37    68     6   NNE    12           37     76     3    NE     8
    "2021-05-16 07:00:00"    39    35    52    73    0.00    0.00     0    39  13.8    38    73     7   ENE    20    32     37     77     6    NE    12
    "2021-05-16 08:00:00"    41                72    0.00             0    24  13.8    40    70     8   ENE    24           39     74     6   ENE    15
    "2021-05-16 09:00:00"    43                68    0.00             0    25  13.7    42    68     5   NNE    18           40     76     5   NNE    14